createdAt,value
2022-10-12T00:01:12.708Z,53.38
2022-10-12T00:03:41.503Z,53.13
2022-10-12T00:06:13.367Z,53.29
2022-10-12T00:08:43.900Z,53.16
2022-10-12T00:11:14.034Z,53.20
2022-10-12T00:13:42.731Z,53.98
2022-10-12T00:16:12.959Z,54.41
2022-10-12T00:18:41.541Z,53.89
2022-10-12T00:21:13.595Z,53.60
2022-10-12T00:23:43.025Z,52.95
2022-10-12T00:26:14.354Z,52.92
2022-10-12T00:28:43.037Z,53.16
2022-10-12T00:31:14.001Z,54.15
2022-10-12T00:33:42.500Z,54.30
2022-10-12T00:36:18.556Z,53.46
2022-10-12T00:38:47.643Z,53.47
2022-10-12T00:41:17.710Z,53.24
2022-10-12T00:43:48.319Z,53.04
2022-10-12T00:46:21.396Z,53.08
2022-10-12T00:48:56.416Z,53.26
2022-10-12T00:51:26.648Z,53.10
2022-10-12T00:53:59.022Z,53.21
2022-10-12T00:56:31.808Z,53.60
2022-10-12T00:59:03.266Z,54.13
2022-10-12T01:01:34.618Z,54.41
2022-10-12T01:04:04.130Z,54.41
2022-10-12T01:06:35.367Z,53.59
2022-10-12T01:09:04.397Z,53.46
2022-10-12T01:11:32.905Z,53.47
2022-10-12T01:14:01.445Z,53.49
2022-10-12T01:16:39.256Z,53.11
2022-10-12T01:19:27.175Z,52.95
2022-10-12T01:22:03.135Z,52.99
2022-10-12T01:24:45.231Z,53.13
2022-10-12T01:27:36.907Z,53.38
2022-10-12T01:30:20.080Z,55.47
2022-10-12T01:33:03.504Z,54.58
2022-10-12T01:35:39.141Z,55.67
2022-10-12T01:38:18.016Z,55.63
2022-10-12T01:40:56.293Z,55.22
2022-10-12T01:43:24.973Z,54.52
2022-10-12T01:45:54.817Z,53.95
2022-10-12T01:48:22.971Z,53.77
2022-10-12T01:50:53.697Z,53.48
2022-10-12T01:53:31.907Z,53.26
2022-10-12T01:56:07.974Z,53.34
2022-10-12T01:58:57.659Z,53.30
2022-10-12T02:01:33.578Z,53.68
2022-10-12T02:04:11.130Z,53.67
2022-10-12T02:06:45.122Z,53.56
2022-10-12T02:09:19.548Z,54.46
2022-10-12T02:11:51.801Z,54.81
2022-10-12T02:14:23.983Z,53.86
2022-10-12T02:16:57.284Z,53.38
2022-10-12T02:19:29.850Z,54.17
2022-10-12T02:22:02.334Z,53.77
2022-10-12T02:24:34.202Z,53.38
2022-10-12T02:27:02.789Z,53.90
2022-10-12T02:29:37.875Z,53.70
2022-10-12T02:32:16.946Z,53.12
2022-10-12T02:34:49.638Z,53.26
2022-10-12T02:37:27.310Z,53.89
2022-10-12T02:39:58.393Z,54.11
2022-10-12T02:42:41.879Z,53.73
2022-10-12T02:45:22.959Z,54.62
2022-10-12T02:47:55.744Z,55.06
2022-10-12T02:50:25.767Z,54.57
2022-10-12T02:52:54.352Z,54.56
2022-10-12T02:55:22.940Z,55.49
2022-10-12T02:57:51.544Z,55.65
2022-10-12T03:00:20.223Z,55.40
2022-10-12T03:02:48.707Z,55.25
2022-10-12T03:05:18.747Z,55.51
2022-10-12T03:07:47.026Z,54.94
2022-10-12T03:10:15.599Z,54.72
2022-10-12T03:12:49.118Z,55.03
2022-10-12T03:15:18.711Z,55.19
2022-10-12T03:17:47.246Z,54.75
2022-10-12T03:20:15.412Z,54.74
2022-10-12T03:22:44.902Z,55.28
2022-10-12T03:25:13.389Z,54.83
2022-10-12T03:27:41.561Z,54.52
2022-10-12T03:30:11.705Z,54.49
2022-10-12T03:32:40.890Z,54.89
2022-10-12T03:35:10.099Z,54.78
2022-10-12T03:37:38.543Z,54.70
2022-10-12T03:40:10.649Z,54.82
2022-10-12T03:42:38.830Z,54.68
2022-10-12T03:45:07.845Z,55.10
2022-10-12T03:47:38.035Z,55.41
2022-10-12T03:50:07.565Z,55.81
2022-10-12T03:52:35.749Z,56.04
2022-10-12T03:55:03.921Z,56.07
2022-10-12T03:57:33.738Z,56.07
2022-10-12T04:00:02.112Z,56.71
2022-10-12T04:02:40.210Z,56.54
2022-10-12T04:05:09.522Z,56.15
2022-10-12T04:07:38.018Z,56.07
2022-10-12T04:10:07.563Z,56.06
2022-10-12T04:12:37.346Z,56.01
2022-10-12T04:15:06.346Z,56.44
2022-10-12T04:17:34.526Z,56.63
2022-10-12T04:20:03.039Z,56.83
2022-10-12T04:22:31.185Z,56.13
2022-10-12T04:24:59.356Z,55.26
2022-10-12T04:27:27.842Z,55.12
2022-10-12T04:29:57.401Z,54.82
2022-10-12T04:32:25.636Z,55.09
2022-10-12T04:34:54.047Z,55.21
2022-10-12T04:37:22.132Z,55.40
2022-10-12T04:39:50.289Z,55.38
2022-10-12T04:42:21.833Z,55.50
2022-10-12T04:44:50.112Z,55.43
2022-10-12T04:47:20.134Z,54.95
2022-10-12T04:49:48.322Z,54.95
2022-10-12T04:52:16.828Z,54.95
2022-10-12T04:54:45.389Z,55.03
2022-10-12T04:57:13.570Z,55.12
2022-10-12T04:59:41.828Z,55.25
2022-10-12T05:02:10.256Z,55.13
2022-10-12T05:04:39.767Z,56.04
2022-10-12T05:07:07.924Z,55.70
2022-10-12T05:09:36.410Z,55.14
2022-10-12T05:12:04.709Z,55.31
2022-10-12T05:14:35.081Z,54.92
2022-10-12T05:17:04.524Z,54.71
2022-10-12T05:19:32.733Z,54.58
2022-10-12T05:22:02.625Z,54.94
2022-10-12T05:24:31.063Z,54.71
2022-10-12T05:26:59.193Z,54.48
2022-10-12T05:29:27.373Z,54.37
2022-10-12T05:31:55.752Z,54.43
2022-10-12T05:34:23.907Z,54.96
2022-10-12T05:36:52.021Z,54.97
2022-10-12T05:39:21.857Z,54.63
2022-10-12T05:41:51.373Z,55.77
2022-10-12T05:44:19.553Z,55.93
2022-10-12T05:46:48.307Z,55.61
2022-10-12T05:49:16.390Z,55.44
2022-10-12T05:51:44.491Z,55.12
2022-10-12T05:54:13.124Z,55.35
2022-10-12T05:56:42.779Z,55.82
2022-10-12T05:59:11.721Z,56.92
2022-10-12T06:01:40.399Z,57.16
2022-10-12T06:04:08.944Z,56.48
2022-10-12T06:06:37.073Z,56.23
2022-10-12T06:09:05.225Z,56.94
2022-10-12T06:11:36.294Z,57.31
2022-10-12T06:14:06.499Z,56.68
2022-10-12T06:16:35.159Z,57.05
2022-10-12T06:19:04.604Z,56.77
2022-10-12T06:21:34.294Z,56.57
2022-10-12T06:24:03.056Z,56.97
2022-10-12T06:26:31.370Z,56.55
2022-10-12T06:29:00.849Z,56.82
2022-10-12T06:31:32.327Z,56.57
2022-10-12T06:34:00.513Z,56.93
2022-10-12T06:36:28.704Z,57.13
2022-10-12T06:38:57.224Z,57.28
2022-10-12T06:41:25.551Z,57.31
2022-10-12T06:43:53.714Z,56.93
2022-10-12T06:46:22.228Z,57.05
2022-10-12T06:48:51.731Z,57.51
2022-10-12T06:51:20.364Z,57.53
2022-10-12T06:53:49.209Z,57.53
2022-10-12T06:56:17.533Z,57.58
2022-10-12T06:58:45.979Z,57.37
2022-10-12T07:01:14.492Z,57.31
2022-10-12T07:03:42.659Z,57.27
2022-10-12T07:06:14.081Z,57.65
2022-10-12T07:08:43.210Z,57.17
2022-10-12T07:11:15.062Z,56.78
2022-10-12T07:13:48.535Z,57.89
2022-10-12T07:16:17.428Z,57.41
2022-10-12T07:18:46.694Z,57.24
2022-10-12T07:21:16.413Z,57.21
2022-10-12T07:23:46.132Z,57.41
2022-10-12T07:26:15.864Z,57.08
2022-10-12T07:28:53.739Z,57.24
2022-10-12T07:31:30.095Z,57.04
2022-10-12T07:34:01.339Z,57.37
2022-10-12T07:36:54.303Z,57.02
2022-10-12T07:39:19.357Z,56.77
2022-10-12T07:41:47.805Z,56.72
2022-10-12T07:44:16.670Z,56.70
2022-10-12T07:46:44.838Z,56.89
2022-10-12T07:49:13.903Z,56.69
2022-10-12T07:51:43.919Z,56.67
2022-10-12T07:54:15.326Z,56.81
2022-10-12T07:56:46.665Z,56.55
2022-10-12T07:59:15.154Z,56.67
2022-10-12T08:01:43.402Z,56.43
2022-10-12T08:04:12.330Z,56.31
2022-10-12T08:06:44.785Z,56.40
2022-10-12T08:09:13.633Z,56.03
2022-10-12T08:11:42.491Z,55.96
2022-10-12T08:14:14.559Z,55.62
2022-10-12T08:16:43.625Z,55.70
2022-10-12T08:19:12.557Z,55.31
2022-10-12T08:21:41.253Z,55.09
2022-10-12T08:24:13.608Z,55.07
2022-10-12T08:26:42.032Z,54.91
2022-10-12T08:29:11.547Z,54.86
2022-10-12T08:31:40.726Z,54.84
2022-10-12T08:34:09.650Z,54.66
2022-10-12T08:36:38.472Z,54.71
2022-10-12T08:39:08.670Z,54.81
2022-10-12T08:41:54.037Z,54.59
2022-10-12T08:44:41.132Z,54.18
2022-10-12T08:47:17.036Z,53.73
2022-10-12T08:49:49.824Z,53.26
2022-10-12T08:52:30.015Z,53.13
2022-10-12T08:55:06.387Z,52.89
2022-10-12T08:57:36.382Z,52.82
2022-10-12T09:00:05.727Z,52.65
2022-10-12T09:02:50.490Z,52.50
2022-10-12T09:05:25.195Z,52.10
2022-10-12T09:07:58.518Z,52.20
2022-10-12T09:10:45.296Z,52.14
2022-10-12T09:13:32.257Z,51.96
2022-10-12T09:16:03.860Z,51.40
2022-10-12T09:18:41.120Z,51.81
2022-10-12T09:21:12.665Z,51.64
2022-10-12T09:23:44.219Z,51.60
2022-10-12T09:26:17.048Z,51.46
2022-10-12T09:28:49.789Z,50.78
2022-10-12T09:31:38.531Z,51.08
2022-10-12T09:34:08.799Z,49.86
2022-10-12T09:36:39.700Z,50.82
2022-10-12T09:39:14.330Z,50.68
2022-10-12T09:41:44.780Z,50.24
2022-10-12T09:44:24.015Z,50.44
2022-10-12T09:46:56.797Z,49.37
2022-10-12T09:49:40.713Z,49.94
2022-10-12T09:52:09.937Z,49.34
2022-10-12T09:54:41.745Z,49.83
2022-10-12T09:57:10.800Z,48.62
2022-10-12T09:59:45.864Z,49.56
2022-10-12T10:02:16.982Z,48.94
2022-10-12T10:04:47.234Z,49.41
2022-10-12T10:07:28.210Z,49.29
2022-10-12T10:10:28.468Z,47.67
2022-10-12T10:13:01.263Z,46.51
2022-10-12T10:15:34.596Z,48.73
2022-10-12T10:18:05.953Z,48.35
2022-10-12T10:20:37.913Z,48.56
2022-10-12T10:23:06.400Z,48.17
2022-10-12T10:25:35.710Z,48.28
2022-10-12T10:28:23.291Z,48.20
2022-10-12T10:31:05.016Z,45.32
2022-10-12T10:33:34.846Z,45.75
2022-10-12T10:36:07.768Z,47.47
2022-10-12T10:38:57.365Z,47.12
2022-10-12T10:41:29.118Z,44.33
2022-10-12T10:43:57.427Z,46.80
2022-10-12T10:46:31.193Z,47.32
2022-10-12T10:49:06.450Z,47.03
2022-10-12T10:51:44.282Z,46.81
2022-10-12T10:54:17.574Z,45.78
2022-10-12T10:56:47.704Z,46.21
2022-10-12T10:59:26.568Z,46.62
2022-10-12T11:02:01.066Z,45.89
2022-10-12T11:04:33.775Z,46.26
2022-10-12T11:07:13.670Z,46.27
2022-10-12T11:09:44.901Z,45.65
2022-10-12T11:12:18.245Z,46.30
2022-10-12T11:14:51.669Z,46.08
2022-10-12T11:17:28.189Z,46.14
2022-10-12T11:20:05.139Z,45.56
2022-10-12T11:22:42.101Z,45.44
2022-10-12T11:25:19.494Z,45.77
2022-10-12T11:27:53.467Z,45.23
2022-10-12T11:30:24.086Z,45.98
2022-10-12T11:33:01.041Z,45.73
2022-10-12T11:35:32.718Z,45.15
2022-10-12T11:38:04.147Z,45.54
2022-10-12T11:41:02.405Z,45.31
2022-10-12T11:43:31.414Z,45.27
2022-10-12T11:46:03.915Z,44.85
2022-10-12T11:48:39.263Z,45.05
2022-10-12T11:51:08.158Z,43.81
2022-10-12T11:53:44.495Z,45.25
2022-10-12T11:56:20.440Z,44.40
2022-10-12T11:59:01.074Z,44.13
2022-10-12T12:01:44.640Z,44.85
2022-10-12T12:07:46.284Z,42.96
2022-10-12T12:11:03.604Z,42.42
2022-10-12T12:13:32.453Z,41.88
2022-10-12T12:16:33.190Z,44.75
2022-10-12T12:19:40.567Z,42.06
2022-10-12T12:22:48.431Z,41.61
2022-10-12T12:25:20.202Z,40.68
2022-10-12T12:27:52.023Z,44.38
2022-10-12T12:30:33.995Z,44.09
2022-10-12T12:33:05.420Z,42.31
2022-10-12T12:35:40.661Z,43.97
2022-10-12T12:38:19.878Z,42.96
2022-10-12T12:41:01.433Z,42.21
2022-10-12T12:44:02.055Z,41.32
2022-10-12T12:47:32.741Z,41.40
2022-10-12T12:50:00.699Z,40.39
2022-10-12T12:52:32.931Z,43.66
2022-10-12T12:55:31.097Z,43.29
2022-10-12T12:58:26.095Z,39.95
2022-10-12T13:01:18.450Z,40.97
2022-10-12T13:04:03.687Z,42.16
2022-10-12T13:07:18.696Z,42.01
2022-10-12T13:10:08.721Z,40.17
2022-10-12T13:13:03.098Z,41.95
2022-10-12T13:15:43.730Z,40.09
2022-10-12T13:18:52.454Z,41.54
2022-10-12T13:21:24.428Z,40.65
2022-10-12T13:24:02.257Z,43.03
2022-10-12T13:26:33.228Z,42.25
2022-10-12T13:29:07.342Z,42.56
2022-10-12T13:31:42.113Z,42.37
2022-10-12T13:34:16.936Z,42.27
2022-10-12T13:36:54.002Z,42.34
2022-10-12T13:39:46.269Z,41.56
2022-10-12T13:42:31.469Z,42.76
2022-10-12T13:45:13.406Z,40.19
2022-10-12T13:47:47.448Z,42.60
2022-10-12T13:50:20.718Z,42.81
2022-10-12T13:52:55.652Z,42.18
2022-10-12T13:55:29.211Z,41.53
2022-10-12T13:57:58.906Z,42.52
2022-10-12T14:00:28.474Z,42.57
2022-10-12T14:02:58.907Z,42.65
2022-10-12T14:05:30.214Z,42.74
2022-10-12T14:08:03.589Z,42.59
2022-10-12T14:10:35.018Z,42.59
2022-10-12T14:13:05.650Z,42.46
2022-10-12T14:15:35.662Z,42.43
2022-10-12T14:18:05.071Z,42.51
2022-10-12T14:20:37.202Z,42.77
2022-10-12T14:23:14.130Z,42.78
2022-10-12T14:25:53.428Z,42.15
2022-10-12T14:28:30.873Z,41.57
2022-10-12T14:30:59.769Z,41.70
2022-10-12T14:33:29.050Z,42.58
2022-10-12T14:36:16.354Z,42.75
2022-10-12T14:38:46.994Z,40.88
2022-10-12T14:41:33.610Z,43.80
2022-10-12T14:44:13.260Z,41.26
2022-10-12T14:46:44.499Z,41.36
2022-10-12T14:49:18.611Z,42.71
2022-10-12T14:51:47.449Z,42.29
2022-10-12T14:54:15.905Z,42.69
2022-10-12T14:56:44.171Z,42.76
2022-10-12T14:59:13.787Z,42.64
2022-10-12T15:01:43.491Z,42.60
2022-10-12T15:04:14.444Z,42.59
2022-10-12T15:06:46.986Z,42.87
2022-10-12T15:09:18.063Z,42.92
2022-10-12T15:11:46.549Z,42.85
2022-10-12T15:14:16.165Z,43.07
2022-10-12T15:16:44.456Z,43.04
2022-10-12T15:19:13.149Z,43.10
2022-10-12T15:21:41.437Z,43.32
2022-10-12T15:24:15.733Z,43.34
2022-10-12T15:26:44.244Z,43.19
2022-10-12T15:29:12.698Z,43.34
2022-10-12T15:31:42.321Z,43.66
2022-10-12T15:34:13.304Z,43.66
2022-10-12T15:36:41.650Z,43.64
2022-10-12T15:39:12.997Z,43.79
2022-10-12T15:41:41.502Z,43.70
2022-10-12T15:44:12.446Z,43.87
2022-10-12T15:46:43.869Z,43.96
2022-10-12T15:49:15.124Z,43.89
2022-10-12T15:51:49.259Z,43.95
2022-10-12T15:54:17.830Z,43.93
2022-10-12T15:56:46.014Z,44.07
2022-10-12T15:59:14.207Z,44.18
2022-10-12T16:01:44.829Z,44.33
2022-10-12T16:04:15.687Z,44.46
2022-10-12T16:06:43.849Z,44.54
2022-10-12T16:09:12.217Z,44.59
2022-10-12T16:11:40.708Z,44.62
2022-10-12T16:14:11.249Z,44.76
2022-10-12T16:16:39.449Z,44.87
2022-10-12T16:19:09.455Z,45.01
2022-10-12T16:21:37.641Z,45.39
2022-10-12T16:24:06.114Z,45.30
2022-10-12T16:26:34.613Z,45.52
2022-10-12T16:29:03.080Z,45.61
2022-10-12T16:31:31.304Z,45.57
2022-10-12T16:33:59.750Z,45.66
2022-10-12T16:36:29.357Z,45.73
2022-10-12T16:38:57.546Z,46.07
2022-10-12T16:41:29.166Z,46.39
2022-10-12T16:43:59.949Z,46.63
2022-10-12T16:46:28.321Z,46.57
2022-10-12T16:48:56.610Z,46.60
2022-10-12T16:51:24.737Z,46.67
2022-10-12T16:53:54.525Z,46.67
2022-10-12T16:56:22.678Z,46.79
2022-10-12T16:58:50.754Z,46.96
2022-10-12T17:01:19.225Z,47.07
2022-10-12T17:03:47.429Z,47.16
2022-10-12T17:06:15.590Z,47.08
2022-10-12T17:08:44.089Z,47.26
2022-10-12T17:11:16.990Z,47.67
2022-10-12T17:13:49.120Z,47.62
2022-10-12T17:16:36.459Z,47.99
2022-10-12T17:19:05.053Z,48.28
2022-10-12T17:21:33.286Z,48.39
2022-10-12T17:24:02.560Z,48.67
2022-10-12T17:26:32.450Z,48.84
2022-10-12T17:29:00.752Z,49.33
2022-10-12T17:31:29.002Z,49.39
2022-10-12T17:33:58.411Z,49.40
2022-10-12T17:36:28.344Z,49.06
2022-10-12T17:38:57.955Z,49.16
2022-10-12T17:41:27.935Z,49.33
2022-10-12T17:43:57.794Z,49.91
2022-10-12T17:46:25.970Z,49.63
2022-10-12T17:48:54.339Z,49.65
2022-10-12T17:51:22.871Z,50.03
2022-10-12T17:53:51.112Z,49.97
2022-10-12T17:56:19.865Z,50.06
2022-10-12T17:58:48.293Z,49.67
2022-10-12T18:01:18.041Z,49.37
2022-10-12T18:03:47.718Z,49.26
2022-10-12T18:06:18.705Z,49.74
2022-10-12T18:08:47.682Z,49.26
2022-10-12T18:11:17.853Z,49.17
2022-10-12T18:13:48.132Z,50.57
2022-10-12T18:16:21.348Z,50.17
2022-10-12T18:18:51.949Z,49.70
2022-10-12T18:21:23.408Z,49.55
2022-10-12T18:23:53.830Z,49.83
2022-10-12T18:26:22.825Z,49.68
2022-10-12T18:28:52.791Z,49.75
2022-10-12T18:31:24.814Z,49.63
2022-10-12T18:33:53.983Z,49.45
2022-10-12T18:36:22.919Z,49.44
2022-10-12T18:38:51.202Z,49.64
2022-10-12T18:41:22.957Z,49.51
2022-10-12T18:43:55.358Z,49.52
2022-10-12T18:46:26.823Z,49.50
2022-10-12T18:48:55.115Z,49.51
2022-10-12T18:51:27.085Z,49.50
2022-10-12T18:53:55.557Z,49.54
2022-10-12T18:56:24.617Z,49.71
2022-10-12T18:58:53.332Z,49.77
2022-10-12T19:01:24.423Z,49.81
2022-10-12T19:03:55.620Z,49.61
2022-10-12T19:06:25.870Z,49.97
2022-10-12T19:08:56.181Z,50.02
2022-10-12T19:11:26.075Z,50.09
2022-10-12T19:13:57.025Z,50.01
2022-10-12T19:16:25.629Z,50.09
2022-10-12T19:18:58.502Z,49.99
2022-10-12T19:21:27.937Z,50.35
2022-10-12T19:23:56.508Z,50.15
2022-10-12T19:26:27.444Z,50.24
2022-10-12T19:28:57.351Z,50.58
2022-10-12T19:31:28.335Z,50.54
2022-10-12T19:33:59.962Z,50.40
2022-10-12T19:36:29.115Z,50.56
2022-10-12T19:38:58.057Z,50.26
2022-10-12T19:41:27.763Z,50.31
2022-10-12T19:43:55.942Z,50.86
2022-10-12T19:46:24.971Z,50.32
2022-10-12T19:48:54.978Z,50.38
2022-10-12T19:51:27.863Z,50.48
2022-10-12T19:53:57.053Z,50.55
2022-10-12T19:56:26.066Z,50.38
2022-10-12T19:58:57.520Z,50.47
2022-10-12T20:01:28.266Z,50.46
2022-10-12T20:03:56.853Z,50.49
2022-10-12T20:06:29.205Z,50.56
2022-10-12T20:08:59.337Z,50.89
2022-10-12T20:11:27.527Z,50.49
2022-10-12T20:13:57.032Z,51.55
2022-10-12T20:16:25.708Z,51.64
2022-10-12T20:18:54.095Z,51.86
2022-10-12T20:21:23.954Z,51.56
2022-10-12T20:23:53.842Z,51.25
2022-10-12T20:26:24.485Z,51.83
2022-10-12T20:28:54.442Z,52.10
2022-10-12T20:31:24.761Z,52.28
2022-10-12T20:33:53.931Z,52.14
2022-10-12T20:36:24.255Z,52.06
2022-10-12T20:38:54.697Z,51.96
2022-10-12T20:41:23.774Z,51.66
2022-10-12T20:43:55.554Z,51.67
2022-10-12T20:46:24.639Z,51.99
2022-10-12T20:48:58.664Z,51.95
2022-10-12T20:51:29.694Z,52.48
2022-10-12T20:54:01.135Z,52.52
2022-10-12T20:56:30.862Z,52.08
2022-10-12T20:59:00.373Z,52.21
2022-10-12T21:01:29.390Z,52.24
2022-10-12T21:03:58.064Z,52.39
2022-10-12T21:06:26.964Z,52.49
2022-10-12T21:08:59.174Z,52.97
2022-10-12T21:11:31.425Z,53.13
2022-10-12T21:14:00.097Z,53.07
2022-10-12T21:16:28.699Z,53.43
2022-10-12T21:18:57.202Z,53.57
2022-10-12T21:21:25.573Z,53.54
2022-10-12T21:23:55.983Z,52.92
2022-10-12T21:26:25.925Z,52.77
2022-10-12T21:28:55.832Z,52.55
2022-10-12T21:31:28.172Z,52.88
2022-10-12T21:34:00.995Z,53.22
2022-10-12T21:36:30.794Z,53.82
2022-10-12T21:39:00.214Z,53.78
2022-10-12T21:41:30.788Z,53.17
2022-10-12T21:44:00.371Z,53.06
2022-10-12T21:46:32.005Z,52.85
2022-10-12T21:49:01.715Z,52.87
2022-10-12T21:51:32.417Z,53.24
2022-10-12T21:54:00.792Z,53.31
2022-10-12T21:56:30.972Z,52.82
2022-10-12T21:59:02.575Z,52.82
2022-10-12T22:01:34.595Z,52.99
2022-10-12T22:04:05.036Z,53.00
2022-10-12T22:06:33.631Z,54.22
2022-10-12T22:09:04.968Z,54.39
2022-10-12T22:11:35.359Z,54.86
2022-10-12T22:14:07.358Z,55.03
2022-10-12T22:16:36.775Z,55.45
2022-10-12T22:19:07.844Z,55.29
2022-10-12T22:21:37.235Z,54.83
2022-10-12T22:24:05.958Z,54.34
2022-10-12T22:26:35.265Z,54.21
2022-10-12T22:29:07.553Z,54.01
2022-10-12T22:31:36.619Z,54.02
2022-10-12T22:34:05.508Z,53.62
2022-10-12T22:36:36.473Z,53.85
2022-10-12T22:39:06.361Z,53.44
2022-10-12T22:41:34.652Z,53.82
2022-10-12T22:44:02.867Z,54.73
2022-10-12T22:46:32.627Z,55.55
2022-10-12T22:49:02.645Z,54.52
2022-10-12T22:51:32.991Z,55.28
2022-10-12T22:54:02.253Z,54.57
2022-10-12T22:56:31.971Z,54.10
2022-10-12T22:59:02.225Z,55.01
2022-10-12T23:01:32.058Z,55.53
2022-10-12T23:04:00.522Z,55.83
2022-10-12T23:06:28.714Z,55.27
2022-10-12T23:08:57.165Z,55.74
2022-10-12T23:11:27.212Z,56.00
2022-10-12T23:13:56.106Z,55.23
2022-10-12T23:16:26.857Z,54.79
2022-10-12T23:18:59.509Z,54.74
2022-10-12T23:21:29.988Z,55.26
2022-10-12T23:23:59.681Z,55.03
2022-10-12T23:26:29.590Z,54.50
2022-10-12T23:28:58.489Z,54.27
2022-10-12T23:31:28.825Z,54.46
2022-10-12T23:34:01.841Z,53.98
2022-10-12T23:36:30.359Z,54.52
2022-10-12T23:39:01.260Z,54.24
2022-10-12T23:41:29.833Z,53.91
2022-10-12T23:43:58.001Z,53.96
2022-10-12T23:46:26.620Z,54.02
2022-10-12T23:48:56.509Z,54.16
2022-10-12T23:51:26.045Z,53.95
2022-10-12T23:53:54.504Z,53.62
2022-10-12T23:56:22.686Z,53.58
2022-10-12T23:58:50.842Z,53.83
